createdAt,value
2022-10-03T00:01:00.397Z,85.96
2022-10-03T00:04:07.235Z,86.66
2022-10-03T00:07:01.714Z,86.77
2022-10-03T00:09:53.268Z,87.87
2022-10-03T00:12:52.871Z,88.22
2022-10-03T00:15:26.967Z,88.50
2022-10-03T00:18:02.212Z,88.41
2022-10-03T00:20:45.222Z,88.81
2022-10-03T00:23:21.646Z,89.33
2022-10-03T00:26:28.553Z,89.14
2022-10-03T00:29:02.526Z,89.40
2022-10-03T00:31:48.443Z,89.11
2022-10-03T00:34:37.621Z,89.42
2022-10-03T00:37:27.266Z,89.40
2022-10-03T00:40:22.813Z,89.73
2022-10-03T00:43:13.455Z,90.03
2022-10-03T00:45:54.361Z,90.04
2022-10-03T00:48:58.533Z,89.69
2022-10-03T00:51:45.131Z,89.58
2022-10-03T00:54:45.066Z,89.06
2022-10-03T00:57:24.077Z,89.49
2022-10-03T00:59:57.778Z,89.64
2022-10-03T01:02:46.400Z,89.52
2022-10-03T01:05:28.419Z,89.13
2022-10-03T01:08:17.987Z,88.71
2022-10-03T01:10:55.197Z,88.45
2022-10-03T01:14:03.603Z,88.20
2022-10-03T01:16:37.711Z,87.96
2022-10-03T01:19:46.754Z,88.06
2022-10-03T01:22:43.366Z,87.66
2022-10-03T01:25:25.243Z,87.72
2022-10-03T01:28:35.777Z,87.73
2022-10-03T01:31:06.009Z,88.56
2022-10-03T01:33:46.247Z,88.65
2022-10-03T01:36:20.416Z,89.68
2022-10-03T01:39:11.630Z,89.31
2022-10-03T01:41:51.854Z,89.04
2022-10-03T01:44:24.881Z,89.80
2022-10-03T01:46:58.724Z,89.78
2022-10-03T01:49:36.494Z,89.43
2022-10-03T01:52:31.091Z,89.26
2022-10-03T01:55:53.460Z,89.28
2022-10-03T01:58:31.436Z,89.21
2022-10-03T02:01:25.793Z,89.58
2022-10-03T02:04:02.516Z,89.24
2022-10-03T02:06:43.646Z,89.13
2022-10-03T02:09:55.344Z,88.89
2022-10-03T02:12:22.912Z,89.05
2022-10-03T02:15:01.124Z,89.27
2022-10-03T02:18:06.981Z,89.20
2022-10-03T02:20:43.170Z,89.19
2022-10-03T02:23:38.705Z,89.04
2022-10-03T02:26:42.066Z,89.05
2022-10-03T02:29:46.393Z,88.67
2022-10-03T02:32:33.620Z,89.32
2022-10-03T02:35:31.453Z,88.17
2022-10-03T02:38:35.594Z,88.28
2022-10-03T02:41:23.602Z,88.68
2022-10-03T02:43:52.641Z,88.60
2022-10-03T02:46:43.715Z,88.86
2022-10-03T02:49:28.728Z,88.89
2022-10-03T02:52:14.180Z,88.64
2022-10-03T02:54:49.585Z,87.96
2022-10-03T02:57:24.069Z,88.18
2022-10-03T03:00:09.820Z,88.66
2022-10-03T03:02:39.100Z,88.96
2022-10-03T03:05:36.624Z,88.41
2022-10-03T03:08:15.862Z,88.22
2022-10-03T03:11:01.186Z,87.57
2022-10-03T03:14:07.043Z,87.13
2022-10-03T03:16:42.333Z,88.16
2022-10-03T03:19:46.382Z,88.51
2022-10-03T03:22:33.711Z,88.62
2022-10-03T03:25:06.582Z,88.11
2022-10-03T03:28:02.674Z,88.45
2022-10-03T03:30:47.025Z,88.32
2022-10-03T03:33:36.483Z,88.24
2022-10-03T03:36:24.186Z,87.65
2022-10-03T03:39:09.454Z,86.56
2022-10-03T03:41:50.933Z,86.50
2022-10-03T03:44:55.773Z,87.24
2022-10-03T03:48:04.830Z,87.54
2022-10-03T03:50:37.531Z,87.15
2022-10-03T03:53:36.351Z,86.44
2022-10-03T03:56:19.291Z,86.50
2022-10-03T03:59:08.824Z,86.67
2022-10-03T04:02:06.533Z,86.42
2022-10-03T04:04:52.002Z,86.50
2022-10-03T04:07:24.737Z,86.46
2022-10-03T04:10:16.762Z,86.28
2022-10-03T04:13:24.322Z,85.37
2022-10-03T04:16:15.840Z,85.74
2022-10-03T04:19:00.750Z,86.03
2022-10-03T04:21:43.999Z,85.63
2022-10-03T04:24:19.715Z,85.65
2022-10-03T04:27:04.539Z,87.17
2022-10-03T04:30:01.416Z,87.67
2022-10-03T04:32:53.081Z,88.08
2022-10-03T04:35:28.465Z,88.21
2022-10-03T04:38:23.017Z,87.27
2022-10-03T04:41:27.607Z,87.47
2022-10-03T04:44:17.484Z,87.45
2022-10-03T04:47:03.546Z,86.49
2022-10-03T04:49:40.145Z,86.92
2022-10-03T04:52:20.172Z,88.12
2022-10-03T04:55:24.001Z,89.22
2022-10-03T04:58:04.926Z,89.44
2022-10-03T05:00:57.336Z,89.74
2022-10-03T05:03:54.272Z,88.64
2022-10-03T05:06:47.885Z,88.43
2022-10-03T05:09:32.867Z,87.50
2022-10-03T05:12:06.206Z,87.88
2022-10-03T05:14:49.876Z,88.19
2022-10-03T05:17:25.596Z,88.29
2022-10-03T05:20:10.877Z,87.33
2022-10-03T05:23:11.247Z,86.80
2022-10-03T05:25:53.421Z,86.65
2022-10-03T05:28:34.478Z,86.61
2022-10-03T05:31:22.823Z,86.25
2022-10-03T05:34:00.053Z,86.82
2022-10-03T05:37:06.438Z,86.98
2022-10-03T05:40:14.278Z,87.46
2022-10-03T05:42:57.982Z,87.29
2022-10-03T05:45:59.008Z,87.59
2022-10-03T05:48:34.055Z,87.84
2022-10-03T05:51:34.035Z,87.31
2022-10-03T05:54:36.008Z,86.74
2022-10-03T05:57:07.846Z,87.52
2022-10-03T05:59:47.014Z,87.42
2022-10-03T06:02:34.895Z,86.90
2022-10-03T06:05:39.209Z,86.49
2022-10-03T06:08:19.892Z,86.40
2022-10-03T06:10:51.925Z,86.59
2022-10-03T06:13:21.008Z,86.45
2022-10-03T06:15:56.374Z,86.72
2022-10-03T06:18:55.322Z,86.59
2022-10-03T06:21:25.719Z,86.64
2022-10-03T06:24:17.148Z,86.52
2022-10-03T06:27:26.234Z,86.95
2022-10-03T06:30:11.695Z,86.67
2022-10-03T06:33:27.462Z,86.42
2022-10-03T06:36:02.800Z,86.62
2022-10-03T06:39:08.325Z,87.40
2022-10-03T06:41:59.039Z,86.48
2022-10-03T06:45:05.102Z,87.11
2022-10-03T06:47:56.623Z,87.55
2022-10-03T06:50:39.429Z,88.06
2022-10-03T06:53:34.507Z,88.27
2022-10-03T06:56:31.768Z,88.01
2022-10-03T06:59:22.819Z,87.30
2022-10-03T07:02:11.039Z,86.47
2022-10-03T07:05:02.609Z,86.05
2022-10-03T07:07:50.635Z,86.58
2022-10-03T07:10:35.080Z,86.40
2022-10-03T07:13:20.212Z,86.88
2022-10-03T07:16:26.082Z,86.86
2022-10-03T07:19:04.331Z,86.81
2022-10-03T07:22:29.015Z,86.88
2022-10-03T07:25:33.005Z,87.26
2022-10-03T07:28:29.743Z,86.89
2022-10-03T07:31:08.415Z,85.44
2022-10-03T07:33:50.180Z,85.86
2022-10-03T07:36:47.274Z,86.55
2022-10-03T07:39:27.630Z,86.51
2022-10-03T07:42:31.518Z,85.22
2022-10-03T07:45:24.641Z,86.06
2022-10-03T07:47:54.040Z,86.65
2022-10-03T07:50:20.654Z,86.34
2022-10-03T07:53:01.159Z,86.00
2022-10-03T07:55:39.902Z,84.85
2022-10-03T07:58:28.721Z,85.88
2022-10-03T08:01:20.624Z,85.61
2022-10-03T08:04:01.708Z,84.83
2022-10-03T08:06:43.335Z,82.91
2022-10-03T08:09:43.766Z,83.73
2022-10-03T08:12:34.806Z,83.68
2022-10-03T08:15:25.901Z,83.29
2022-10-03T08:18:26.720Z,83.85
2022-10-03T08:20:57.801Z,85.12
2022-10-03T08:23:33.425Z,84.53
2022-10-03T08:26:00.111Z,83.34
2022-10-03T08:28:47.045Z,82.86
2022-10-03T08:31:28.703Z,83.11
2022-10-03T08:34:13.963Z,82.48
2022-10-03T08:36:46.214Z,82.75
2022-10-03T08:39:13.997Z,80.92
2022-10-03T08:41:46.497Z,81.20
2022-10-03T08:44:41.079Z,80.13
2022-10-03T08:47:19.867Z,81.03
2022-10-03T08:50:16.296Z,80.93
2022-10-03T08:53:48.871Z,80.32
2022-10-03T08:56:22.649Z,79.44
2022-10-03T08:59:07.147Z,80.12
2022-10-03T09:02:11.060Z,78.78
2022-10-03T09:05:05.070Z,76.86
2022-10-03T09:07:44.422Z,75.32
2022-10-03T09:10:41.871Z,74.68
2022-10-03T09:13:28.261Z,75.39
2022-10-03T09:16:04.436Z,75.55
2022-10-03T09:18:56.392Z,75.84
2022-10-03T09:21:44.743Z,75.72
2022-10-03T09:24:35.795Z,74.73
2022-10-03T09:27:15.996Z,73.53
2022-10-03T09:29:58.107Z,72.61
2022-10-03T09:32:36.472Z,71.40
2022-10-03T09:36:00.535Z,67.81
2022-10-03T09:39:04.031Z,70.07
2022-10-03T09:42:06.940Z,69.94
2022-10-03T09:45:10.216Z,67.09
2022-10-03T09:47:53.097Z,69.89
2022-10-03T09:50:56.657Z,66.53
2022-10-03T09:53:56.180Z,64.04
2022-10-03T09:56:25.573Z,61.45
2022-10-03T09:59:29.628Z,61.91
2022-10-03T10:02:33.957Z,61.95
2022-10-03T10:05:22.777Z,60.89
2022-10-03T10:08:10.770Z,60.45
2022-10-03T10:11:12.134Z,59.73
2022-10-03T10:14:06.191Z,58.63
2022-10-03T10:17:08.551Z,57.70
2022-10-03T10:19:54.873Z,57.12
2022-10-03T10:22:39.333Z,59.35
2022-10-03T10:25:14.907Z,59.84
2022-10-03T10:28:18.080Z,60.81
2022-10-03T10:31:26.036Z,62.94
2022-10-03T10:34:17.243Z,63.76
2022-10-03T10:37:08.629Z,63.80
2022-10-03T10:39:53.865Z,63.38
2022-10-03T10:42:36.203Z,64.15
2022-10-03T10:45:40.187Z,64.87
2022-10-03T10:48:28.432Z,60.32
2022-10-03T10:51:28.642Z,61.28
2022-10-03T10:54:31.318Z,62.50
2022-10-03T10:57:07.811Z,61.29
2022-10-03T10:59:59.018Z,63.50
2022-10-03T11:02:43.664Z,62.24
2022-10-03T11:05:34.384Z,60.54
2022-10-03T11:08:19.480Z,59.68
2022-10-03T11:10:54.838Z,60.42
2022-10-03T11:13:59.389Z,63.63
2022-10-03T11:16:57.884Z,62.41
2022-10-03T11:19:33.538Z,58.54
2022-10-03T11:22:24.551Z,61.43
2022-10-03T11:25:43.706Z,62.21
2022-10-03T11:28:46.030Z,60.81
2022-10-03T11:31:36.237Z,63.68
2022-10-03T11:34:40.695Z,66.07
2022-10-03T11:37:21.005Z,67.07
2022-10-03T11:39:50.593Z,68.40
2022-10-03T11:42:21.740Z,70.33
2022-10-03T11:45:05.831Z,70.18
2022-10-03T11:47:51.800Z,70.08
2022-10-03T11:50:18.922Z,69.89
2022-10-03T11:53:11.134Z,69.46
2022-10-03T11:56:18.679Z,67.40
2022-10-03T11:59:13.142Z,66.80
2022-10-03T12:05:52.902Z,69.00
2022-10-03T12:08:46.783Z,69.29
2022-10-03T12:11:25.938Z,67.45
2022-10-03T12:13:55.219Z,65.21
2022-10-03T12:16:30.421Z,67.67
2022-10-03T12:19:18.414Z,66.88
2022-10-03T12:22:06.402Z,66.39
2022-10-03T12:24:37.583Z,67.33
2022-10-03T12:27:09.733Z,64.54
2022-10-03T12:29:40.426Z,67.76
2022-10-03T12:32:17.086Z,66.25
2022-10-03T12:34:58.578Z,64.34
2022-10-03T12:37:34.792Z,64.26
2022-10-03T12:40:15.779Z,63.89
2022-10-03T12:42:54.948Z,64.89
2022-10-03T12:45:27.504Z,64.58
2022-10-03T12:48:04.643Z,64.27
2022-10-03T12:51:10.471Z,63.47
2022-10-03T12:54:26.491Z,62.75
2022-10-03T12:57:13.035Z,63.85
2022-10-03T12:59:52.935Z,61.70
2022-10-03T13:02:39.703Z,61.70
2022-10-03T13:05:27.551Z,61.83
2022-10-03T13:07:57.659Z,62.23
2022-10-03T13:10:35.048Z,60.79
2022-10-03T13:13:20.125Z,59.77
2022-10-03T13:16:04.142Z,59.73
2022-10-03T13:18:52.676Z,57.50
2022-10-03T13:21:45.989Z,57.64
2022-10-03T13:24:20.422Z,59.33
2022-10-03T13:27:15.844Z,58.90
2022-10-03T13:29:48.734Z,58.04
2022-10-03T13:32:30.451Z,56.08
2022-10-03T13:35:24.040Z,56.95
2022-10-03T13:38:12.774Z,56.30
2022-10-03T13:40:48.286Z,56.53
2022-10-03T13:43:20.101Z,53.18
2022-10-03T13:45:49.491Z,54.04
2022-10-03T13:48:22.956Z,53.76
2022-10-03T13:51:01.720Z,54.26
2022-10-03T13:53:59.860Z,55.31
2022-10-03T13:56:40.825Z,55.26
2022-10-03T13:59:32.236Z,56.75
2022-10-03T14:02:17.329Z,56.45
2022-10-03T14:05:05.441Z,54.37
2022-10-03T14:08:07.340Z,55.46
2022-10-03T14:11:00.941Z,55.97
2022-10-03T14:13:31.956Z,53.69
2022-10-03T14:16:25.161Z,54.63
2022-10-03T14:19:05.092Z,56.48
2022-10-03T14:22:14.894Z,54.34
2022-10-03T14:25:03.375Z,55.45
2022-10-03T14:27:59.753Z,54.95
2022-10-03T14:31:07.609Z,54.32
2022-10-03T14:33:42.013Z,55.54
2022-10-03T14:36:39.031Z,56.06
2022-10-03T14:39:28.379Z,56.38
2022-10-03T14:41:54.773Z,57.04
2022-10-03T14:44:36.579Z,58.51
2022-10-03T14:47:14.265Z,58.96
2022-10-03T14:49:56.289Z,60.55
2022-10-03T14:52:38.088Z,61.10
2022-10-03T14:55:14.421Z,61.24
2022-10-03T14:58:08.727Z,61.88
2022-10-03T15:00:43.731Z,61.33
2022-10-03T15:03:16.711Z,61.68
2022-10-03T15:06:03.187Z,61.76
2022-10-03T15:08:37.745Z,61.78
2022-10-03T15:11:06.451Z,62.39
2022-10-03T15:13:51.123Z,62.16
2022-10-03T15:16:20.894Z,62.59
2022-10-03T15:19:17.943Z,63.18
2022-10-03T15:21:47.343Z,62.96
2022-10-03T15:24:25.112Z,64.06
2022-10-03T15:26:58.507Z,64.18
2022-10-03T15:29:25.696Z,64.49
2022-10-03T15:31:54.490Z,65.40
2022-10-03T15:34:27.667Z,65.41
2022-10-03T15:37:04.173Z,65.56
2022-10-03T15:39:35.612Z,65.89
2022-10-03T15:42:04.446Z,67.71
2022-10-03T15:44:39.352Z,67.19
2022-10-03T15:47:16.842Z,66.28
2022-10-03T15:49:59.733Z,65.25
2022-10-03T15:52:43.223Z,66.51
2022-10-03T15:55:34.657Z,65.24
2022-10-03T15:58:22.675Z,63.98
2022-10-03T16:01:00.964Z,65.34
2022-10-03T16:03:39.293Z,66.16
2022-10-03T16:06:13.839Z,65.94
2022-10-03T16:08:58.990Z,65.23
2022-10-03T16:11:29.466Z,65.75
2022-10-03T16:14:16.917Z,65.85
2022-10-03T16:16:54.003Z,65.74
2022-10-03T16:19:38.158Z,66.08
2022-10-03T16:22:04.510Z,65.86
2022-10-03T16:24:36.073Z,66.79
2022-10-03T16:27:14.198Z,67.22
2022-10-03T16:29:49.899Z,67.32
2022-10-03T16:32:27.066Z,67.98
2022-10-03T16:34:59.429Z,68.28
2022-10-03T16:37:27.941Z,68.09
2022-10-03T16:40:05.024Z,68.41
2022-10-03T16:42:46.289Z,68.43
2022-10-03T16:45:30.819Z,69.60
2022-10-03T16:48:20.514Z,71.09
2022-10-03T16:50:53.272Z,72.77
2022-10-03T16:53:22.192Z,71.71
2022-10-03T16:55:55.385Z,70.60
2022-10-03T16:58:33.649Z,69.32
2022-10-03T17:01:25.849Z,69.09
2022-10-03T17:04:01.083Z,70.03
2022-10-03T17:06:31.125Z,70.70
2022-10-03T17:09:02.504Z,70.49
2022-10-03T17:11:34.139Z,70.75
2022-10-03T17:14:06.212Z,74.42
2022-10-03T17:16:47.447Z,74.35
2022-10-03T17:19:21.285Z,74.52
2022-10-03T17:21:54.587Z,75.71
2022-10-03T17:24:42.259Z,76.05
2022-10-03T17:27:16.916Z,76.88
2022-10-03T17:29:51.003Z,76.83
2022-10-03T17:32:42.080Z,77.25
2022-10-03T17:35:25.015Z,77.01
2022-10-03T17:38:30.371Z,76.78
2022-10-03T17:41:12.286Z,77.24
2022-10-03T17:43:47.743Z,77.52
2022-10-03T17:46:26.044Z,78.08
2022-10-03T17:49:18.665Z,76.56
2022-10-03T17:51:48.113Z,75.50
2022-10-03T17:54:26.271Z,74.70
2022-10-03T17:57:00.103Z,74.35
2022-10-03T17:59:46.711Z,75.06
2022-10-03T18:02:24.076Z,80.45
2022-10-03T18:05:03.045Z,79.17
2022-10-03T18:07:30.880Z,76.39
2022-10-03T18:09:58.058Z,77.05
2022-10-03T18:12:40.279Z,76.40
2022-10-03T18:15:22.646Z,76.21
2022-10-03T18:18:17.099Z,75.89
2022-10-03T18:20:48.862Z,76.48
2022-10-03T18:23:54.815Z,76.78
2022-10-03T18:26:35.951Z,77.62
2022-10-03T18:29:21.957Z,77.84
2022-10-03T18:32:17.259Z,78.63
2022-10-03T18:34:52.472Z,78.19
2022-10-03T18:37:28.240Z,77.09
2022-10-03T18:39:58.444Z,76.99
2022-10-03T18:42:29.669Z,76.72
2022-10-03T18:44:58.301Z,77.25
2022-10-03T18:47:33.220Z,77.65
2022-10-03T18:50:26.187Z,76.33
2022-10-03T18:53:05.299Z,76.63
2022-10-03T18:55:47.293Z,77.05
2022-10-03T18:58:25.808Z,76.50
2022-10-03T19:00:58.304Z,77.53
2022-10-03T19:03:35.421Z,77.20
2022-10-03T19:06:21.216Z,77.60
2022-10-03T19:08:58.721Z,78.07
2022-10-03T19:11:39.301Z,78.11
2022-10-03T19:14:17.479Z,79.10
2022-10-03T19:17:20.875Z,79.36
2022-10-03T19:19:58.879Z,79.05
2022-10-03T19:22:33.049Z,78.92
2022-10-03T19:25:05.141Z,79.07
2022-10-03T19:27:56.045Z,79.55
2022-10-03T19:30:25.389Z,79.35
2022-10-03T19:32:58.890Z,78.85
2022-10-03T19:35:26.974Z,78.52
2022-10-03T19:38:00.444Z,79.66
2022-10-03T19:40:52.960Z,79.78
2022-10-03T19:43:35.028Z,79.52
2022-10-03T19:46:35.656Z,78.85
2022-10-03T19:49:27.610Z,78.80
2022-10-03T19:52:21.743Z,79.04
2022-10-03T19:54:50.648Z,79.67
2022-10-03T19:57:26.547Z,80.70
2022-10-03T19:59:57.970Z,80.39
2022-10-03T20:02:27.041Z,80.94
2022-10-03T20:04:56.385Z,81.03
2022-10-03T20:07:35.011Z,81.25
2022-10-03T20:10:29.195Z,80.94
2022-10-03T20:13:03.277Z,80.84
2022-10-03T20:15:41.766Z,80.39
2022-10-03T20:18:13.125Z,79.50
2022-10-03T20:20:40.982Z,79.69
2022-10-03T20:23:14.402Z,79.58
2022-10-03T20:25:47.296Z,79.35
2022-10-03T20:28:32.093Z,79.77
2022-10-03T20:30:58.689Z,80.04
2022-10-03T20:33:29.953Z,79.53
2022-10-03T20:36:13.970Z,80.16
2022-10-03T20:39:06.206Z,80.32
2022-10-03T20:41:50.222Z,79.97
2022-10-03T20:44:50.706Z,80.70
2022-10-03T20:47:35.206Z,80.97
2022-10-03T20:50:08.620Z,81.36
2022-10-03T20:52:35.097Z,82.24
2022-10-03T20:55:06.701Z,83.33
2022-10-03T20:57:44.893Z,84.02
2022-10-03T21:00:14.557Z,83.70
2022-10-03T21:02:57.132Z,84.21
2022-10-03T21:05:26.007Z,83.46
2022-10-03T21:07:59.059Z,83.36
2022-10-03T21:10:38.641Z,83.31
2022-10-03T21:13:09.713Z,83.05
2022-10-03T21:15:46.955Z,82.69
2022-10-03T21:18:30.275Z,81.93
2022-10-03T21:21:43.392Z,81.20
2022-10-03T21:24:38.762Z,80.60
2022-10-03T21:27:07.867Z,81.27
2022-10-03T21:29:37.234Z,81.96
2022-10-03T21:32:36.424Z,81.48
2022-10-03T21:35:15.385Z,81.18
2022-10-03T21:37:59.969Z,81.62
2022-10-03T21:40:42.198Z,81.71
2022-10-03T21:43:27.536Z,83.19
2022-10-03T21:45:56.969Z,83.51
2022-10-03T21:48:29.528Z,82.20
2022-10-03T21:51:05.350Z,82.85
2022-10-03T21:53:45.801Z,82.58
2022-10-03T21:56:40.238Z,83.92
2022-10-03T21:59:12.748Z,82.76
2022-10-03T22:01:56.129Z,82.39
2022-10-03T22:04:44.254Z,82.26
2022-10-03T22:07:16.188Z,81.58
2022-10-03T22:09:53.628Z,81.67
2022-10-03T22:12:20.031Z,82.82
2022-10-03T22:15:06.490Z,82.90
2022-10-03T22:17:43.249Z,83.34
2022-10-03T22:20:24.391Z,83.45
2022-10-03T22:23:22.386Z,83.82
2022-10-03T22:26:18.540Z,83.37
2022-10-03T22:28:58.867Z,83.52
2022-10-03T22:31:29.833Z,83.47
2022-10-03T22:34:21.089Z,83.29
2022-10-03T22:36:48.850Z,83.68
2022-10-03T22:39:18.753Z,83.05
2022-10-03T22:41:49.771Z,82.99
2022-10-03T22:44:19.278Z,83.33
2022-10-03T22:46:50.006Z,84.04
2022-10-03T22:49:21.873Z,83.96
2022-10-03T22:51:51.282Z,83.88
2022-10-03T22:54:18.870Z,82.82
2022-10-03T22:56:52.761Z,83.22
2022-10-03T22:59:27.022Z,81.85
2022-10-03T23:01:56.870Z,82.32
2022-10-03T23:04:30.420Z,82.64
2022-10-03T23:07:18.740Z,83.38
2022-10-03T23:10:07.370Z,81.67
2022-10-03T23:12:44.316Z,81.52
2022-10-03T23:15:16.530Z,82.05
2022-10-03T23:18:27.861Z,82.11
2022-10-03T23:21:11.322Z,82.42
2022-10-03T23:24:03.910Z,82.56
2022-10-03T23:26:54.640Z,81.50
2022-10-03T23:29:22.054Z,81.59
2022-10-03T23:31:53.417Z,82.13
2022-10-03T23:34:35.467Z,81.64
2022-10-03T23:37:22.701Z,81.01
2022-10-03T23:39:55.330Z,81.65
2022-10-03T23:42:37.564Z,81.78
2022-10-03T23:45:06.776Z,81.49
2022-10-03T23:47:40.026Z,80.97
2022-10-03T23:50:08.674Z,81.10
2022-10-03T23:52:47.599Z,80.59
2022-10-03T23:55:20.559Z,80.48
2022-10-03T23:57:47.799Z,80.02
